createdAt,value
2023-03-21T00:01:53.540Z,41.80
2023-03-21T00:04:23.126Z,39.67
2023-03-21T00:06:50.744Z,39.33
2023-03-21T00:09:17.990Z,36.60
2023-03-21T00:11:45.643Z,37.83
2023-03-21T00:14:15.063Z,44.43
2023-03-21T00:16:45.640Z,42.77
2023-03-21T00:19:14.485Z,50.80
2023-03-21T00:22:05.800Z,45.70
2023-03-21T00:24:30.145Z,49.60
2023-03-21T00:27:06.006Z,50.10
2023-03-21T00:29:43.248Z,48.00
2023-03-21T00:32:10.351Z,45.30
2023-03-21T00:34:43.347Z,44.30
2023-03-21T00:37:21.600Z,51.13
2023-03-21T00:39:49.336Z,59.90
2023-03-21T00:42:17.062Z,62.93
2023-03-21T00:44:44.879Z,59.23
2023-03-21T00:47:13.243Z,79.57
2023-03-21T00:49:40.615Z,85.07
2023-03-21T00:52:24.822Z,83.73
2023-03-21T00:54:58.502Z,86.60
2023-03-21T00:57:38.128Z,80.73
2023-03-21T01:00:10.669Z,79.73
2023-03-21T01:02:43.494Z,74.43
2023-03-21T01:05:12.294Z,74.33
2023-03-21T01:07:39.437Z,76.37
2023-03-21T01:10:07.253Z,89.70
2023-03-21T01:12:34.485Z,96.30
2023-03-21T01:15:03.902Z,92.13
2023-03-21T01:17:31.042Z,93.47
2023-03-21T01:19:58.372Z,98.03
2023-03-21T01:22:25.677Z,92.50
2023-03-21T01:24:58.473Z,87.23
2023-03-21T01:27:30.424Z,88.33
2023-03-21T01:29:57.807Z,93.67
2023-03-21T01:32:25.814Z,91.20
2023-03-21T01:34:53.055Z,89.97
2023-03-21T01:37:22.843Z,89.40
2023-03-21T01:39:51.284Z,85.33
2023-03-21T01:42:19.786Z,93.30
2023-03-21T01:45:27.291Z,91.87
2023-03-21T01:47:54.697Z,86.20
2023-03-21T01:50:32.444Z,81.47
2023-03-21T01:53:06.489Z,84.50
2023-03-21T01:55:36.593Z,87.33
2023-03-21T01:58:12.663Z,93.53
2023-03-21T02:01:04.815Z,92.33
2023-03-21T02:03:52.321Z,93.70
2023-03-21T02:06:38.674Z,100.17
2023-03-21T02:09:20.310Z,97.43
2023-03-21T02:11:48.003Z,92.37
2023-03-21T02:14:28.262Z,97.93
2023-03-21T02:17:39.189Z,98.17
2023-03-21T02:20:49.530Z,93.50
2023-03-21T02:23:57.563Z,92.87
2023-03-21T02:26:41.867Z,84.60
2023-03-21T02:29:32.702Z,91.47
2023-03-21T02:32:20.456Z,88.40
2023-03-21T02:35:19.951Z,86.93
2023-03-21T02:38:04.580Z,82.27
2023-03-21T02:40:45.745Z,89.03
2023-03-21T02:43:29.466Z,89.07
2023-03-21T02:46:15.126Z,89.03
2023-03-21T02:48:59.344Z,74.30
2023-03-21T02:51:30.646Z,82.43
2023-03-21T02:54:28.213Z,93.90
2023-03-21T02:57:01.012Z,91.83
2023-03-21T02:59:30.408Z,80.17
2023-03-21T03:02:00.752Z,81.10
2023-03-21T03:04:28.860Z,79.60
2023-03-21T03:06:59.011Z,84.27
2023-03-21T03:10:12.425Z,78.00
2023-03-21T03:13:20.049Z,80.77
2023-03-21T03:16:31.078Z,80.17
2023-03-21T03:19:01.466Z,71.67
2023-03-21T03:21:42.229Z,69.83
2023-03-21T03:24:22.874Z,72.00
2023-03-21T03:26:58.117Z,75.20
2023-03-21T03:29:30.683Z,68.30
2023-03-21T03:32:04.232Z,72.73
2023-03-21T03:34:40.780Z,78.47
2023-03-21T03:37:14.880Z,69.00
2023-03-21T03:40:08.265Z,72.33
2023-03-21T03:42:49.892Z,73.77
2023-03-21T03:45:37.831Z,70.83
2023-03-21T03:48:35.608Z,66.37
2023-03-21T03:51:26.119Z,74.50
2023-03-21T03:54:15.617Z,62.70
2023-03-21T03:56:44.148Z,64.77
2023-03-21T03:59:27.255Z,61.83
2023-03-21T04:02:17.453Z,64.93
2023-03-21T04:04:44.851Z,60.10
2023-03-21T04:07:12.248Z,57.27
2023-03-21T04:09:44.445Z,59.27
2023-03-21T04:12:15.681Z,56.93
2023-03-21T04:14:56.967Z,58.30
2023-03-21T04:17:29.601Z,57.80
2023-03-21T04:20:05.419Z,52.03
2023-03-21T04:22:38.062Z,56.20
2023-03-21T04:25:06.495Z,47.03
2023-03-21T04:28:13.528Z,47.87
2023-03-21T04:31:26.458Z,45.40
2023-03-21T04:34:09.911Z,44.87
2023-03-21T04:36:42.988Z,42.93
2023-03-21T04:39:30.362Z,39.97
2023-03-21T04:42:18.780Z,38.97
2023-03-21T04:44:49.428Z,41.50
2023-03-21T04:47:20.252Z,38.03
2023-03-21T04:49:51.678Z,39.23
2023-03-21T04:52:19.779Z,35.57
2023-03-21T04:54:47.561Z,35.20
2023-03-21T04:57:14.851Z,35.13
2023-03-21T04:59:42.762Z,32.73
2023-03-21T05:02:10.038Z,37.53
2023-03-21T05:04:37.162Z,31.97
2023-03-21T05:07:04.414Z,31.37
2023-03-21T05:09:32.275Z,34.50
2023-03-21T05:11:59.845Z,39.50
2023-03-21T05:14:29.895Z,35.13
2023-03-21T05:17:01.739Z,35.70
2023-03-21T05:19:35.307Z,34.00
2023-03-21T05:22:08.235Z,36.83
2023-03-21T05:24:39.264Z,38.50
2023-03-21T05:27:08.735Z,37.40
2023-03-21T05:29:41.877Z,38.83
2023-03-21T05:32:10.599Z,41.20
2023-03-21T05:34:57.756Z,40.37
2023-03-21T05:37:25.260Z,43.00
2023-03-21T05:39:52.795Z,43.40
2023-03-21T05:42:27.015Z,45.70
2023-03-21T05:44:55.215Z,46.20
2023-03-21T05:47:27.980Z,48.47
2023-03-21T05:49:57.201Z,49.33
2023-03-21T05:52:25.289Z,53.23
2023-03-21T05:54:52.542Z,55.57
2023-03-21T05:57:23.049Z,53.83
2023-03-21T05:59:57.759Z,51.73
2023-03-21T06:02:24.986Z,51.63
2023-03-21T06:04:53.491Z,46.80
2023-03-21T06:07:21.930Z,49.63
2023-03-21T06:09:50.453Z,49.77
2023-03-21T06:12:17.704Z,49.27
2023-03-21T06:14:59.574Z,49.80
2023-03-21T06:17:32.984Z,46.37
2023-03-21T06:20:06.902Z,45.83
2023-03-21T06:22:40.316Z,45.37
2023-03-21T06:25:08.722Z,45.43
2023-03-21T06:27:37.136Z,46.20
2023-03-21T06:30:07.410Z,47.23
2023-03-21T06:32:41.142Z,46.80
2023-03-21T06:35:12.978Z,45.33
2023-03-21T06:38:00.307Z,46.37
2023-03-21T06:40:31.970Z,40.90
2023-03-21T06:42:59.406Z,43.50
2023-03-21T06:45:26.578Z,43.80
2023-03-21T06:48:13.755Z,43.03
2023-03-21T06:50:50.985Z,42.00
2023-03-21T06:53:24.943Z,40.97
2023-03-21T06:56:15.428Z,46.30
2023-03-21T06:58:58.864Z,48.23
2023-03-21T07:01:50.751Z,49.27
2023-03-21T07:04:37.955Z,49.90
2023-03-21T07:07:29.092Z,48.13
2023-03-21T07:09:56.558Z,53.17
2023-03-21T07:12:25.003Z,51.03
2023-03-21T07:15:08.226Z,49.80
2023-03-21T07:17:56.783Z,51.87
2023-03-21T07:20:24.172Z,45.33
2023-03-21T07:22:51.540Z,49.50
2023-03-21T07:25:20.150Z,46.97
2023-03-21T07:27:48.201Z,45.50
2023-03-21T07:30:16.500Z,46.43
2023-03-21T07:32:45.677Z,47.27
2023-03-21T07:35:16.938Z,46.57
2023-03-21T07:37:44.098Z,44.47
2023-03-21T07:40:15.530Z,45.20
2023-03-21T07:42:43.309Z,46.33
2023-03-21T07:45:16.517Z,51.27
2023-03-21T07:47:45.986Z,47.77
2023-03-21T07:50:14.346Z,52.57
2023-03-21T07:52:42.121Z,50.20
2023-03-21T07:55:09.872Z,49.03
2023-03-21T07:57:37.552Z,47.60
2023-03-21T08:00:07.044Z,53.00
2023-03-21T08:02:40.238Z,48.57
2023-03-21T08:05:08.152Z,51.03
2023-03-21T08:07:35.345Z,50.57
2023-03-21T08:10:02.950Z,50.03
2023-03-21T08:12:30.453Z,47.67
2023-03-21T08:15:00.617Z,48.33
2023-03-21T08:17:28.469Z,49.10
2023-03-21T08:19:56.074Z,47.77
2023-03-21T08:22:23.423Z,50.27
2023-03-21T08:24:50.689Z,50.53
2023-03-21T08:27:17.830Z,50.27
2023-03-21T08:30:03.847Z,49.23
2023-03-21T08:32:31.280Z,49.70
2023-03-21T08:35:00.828Z,51.90
2023-03-21T08:37:28.598Z,49.33
2023-03-21T08:39:55.940Z,45.67
2023-03-21T08:42:28.302Z,53.17
2023-03-21T08:44:55.674Z,47.07
2023-03-21T08:47:22.995Z,48.47
2023-03-21T08:49:50.369Z,49.37
2023-03-21T08:52:17.751Z,45.97
2023-03-21T08:54:45.461Z,44.87
2023-03-21T08:57:12.883Z,47.03
2023-03-21T08:59:40.421Z,48.87
2023-03-21T09:02:07.833Z,46.50
2023-03-21T09:04:35.068Z,44.27
2023-03-21T09:07:05.296Z,42.90
2023-03-21T09:09:32.695Z,42.20
2023-03-21T09:11:59.994Z,43.60
2023-03-21T09:14:29.182Z,41.50
2023-03-21T09:16:56.954Z,39.93
2023-03-21T09:19:24.325Z,40.70
2023-03-21T09:21:53.219Z,34.33
2023-03-21T09:24:20.805Z,33.67
2023-03-21T09:26:50.944Z,36.90
2023-03-21T09:29:23.319Z,35.87
2023-03-21T09:31:53.447Z,32.83
2023-03-21T09:34:20.965Z,27.97
2023-03-21T09:36:52.074Z,26.53
2023-03-21T09:39:20.748Z,24.37
2023-03-21T09:42:17.807Z,23.63
2023-03-21T09:45:01.777Z,22.03
2023-03-21T09:47:49.824Z,22.00
2023-03-21T09:50:35.361Z,20.53
2023-03-21T09:53:06.008Z,21.80
2023-03-21T09:55:37.893Z,19.20
2023-03-21T09:58:09.560Z,20.53
2023-03-21T10:00:43.506Z,19.07
2023-03-21T10:03:26.370Z,16.57
2023-03-21T10:05:58.596Z,16.83
2023-03-21T10:08:37.497Z,19.33
2023-03-21T10:11:14.573Z,17.40
2023-03-21T10:13:50.989Z,19.23
2023-03-21T10:16:44.251Z,17.17
2023-03-21T10:19:18.701Z,17.13
2023-03-21T10:22:06.971Z,18.40
2023-03-21T10:24:35.373Z,18.43
2023-03-21T10:27:04.805Z,18.13
2023-03-21T10:29:53.362Z,18.47
2023-03-21T10:32:23.111Z,20.33
2023-03-21T10:37:28.332Z,17.60
2023-03-21T10:39:56.262Z,16.33
2023-03-21T10:42:28.174Z,17.53
2023-03-21T10:44:58.339Z,17.60
2023-03-21T10:47:31.237Z,15.60
2023-03-21T10:50:08.069Z,16.63
2023-03-21T10:52:43.346Z,15.87
2023-03-21T10:55:25.955Z,19.30
2023-03-21T10:58:03.178Z,17.83
2023-03-21T11:00:38.471Z,16.27
2023-03-21T11:03:06.949Z,17.23
2023-03-21T11:05:42.175Z,18.80
2023-03-21T11:08:16.459Z,18.90
2023-03-21T11:10:58.918Z,18.30
2023-03-21T11:13:40.257Z,19.47
2023-03-21T11:16:36.104Z,16.73
2023-03-21T11:19:18.844Z,17.43
2023-03-21T11:21:46.739Z,17.40
2023-03-21T11:24:18.095Z,17.07
2023-03-21T11:26:49.734Z,17.93
2023-03-21T11:29:29.762Z,19.40
2023-03-21T11:32:30.568Z,18.43
2023-03-21T11:35:02.260Z,16.73
2023-03-21T11:37:39.398Z,18.53
2023-03-21T11:40:29.348Z,19.50
2023-03-21T11:43:17.170Z,19.50
2023-03-21T11:46:03.273Z,19.80
2023-03-21T11:48:34.818Z,20.63
2023-03-21T11:51:14.868Z,17.73
2023-03-21T11:54:04.358Z,18.23
2023-03-21T11:56:56.072Z,17.40
2023-03-21T11:59:35.447Z,15.87
2023-03-21T12:02:23.355Z,17.07
2023-03-21T12:05:21.563Z,17.03
2023-03-21T12:08:06.397Z,14.90
2023-03-21T12:10:46.775Z,18.47
2023-03-21T12:13:48.621Z,16.83
2023-03-21T12:16:24.624Z,14.90
2023-03-21T12:19:17.400Z,14.87
2023-03-21T12:22:11.977Z,15.50
2023-03-21T12:24:57.084Z,16.70
2023-03-21T12:27:48.737Z,16.40
2023-03-21T12:30:34.610Z,16.17
2023-03-21T12:33:26.025Z,15.97
2023-03-21T12:36:04.050Z,17.27
2023-03-21T12:39:14.301Z,17.37
2023-03-21T12:41:54.606Z,18.03
2023-03-21T12:44:26.334Z,18.93
2023-03-21T12:47:13.797Z,19.17
2023-03-21T12:50:01.462Z,20.90
2023-03-21T12:52:45.931Z,19.77
2023-03-21T12:55:34.456Z,20.40
2023-03-21T12:58:12.207Z,20.03
2023-03-21T13:00:45.627Z,19.40
2023-03-21T13:03:40.371Z,22.13
2023-03-21T13:06:13.399Z,21.50
2023-03-21T13:08:59.880Z,23.03
2023-03-21T13:11:31.110Z,24.97
2023-03-21T13:14:26.401Z,22.47
2023-03-21T13:17:13.301Z,27.27
2023-03-21T13:19:51.456Z,23.97
2023-03-21T13:22:31.130Z,26.00
2023-03-21T13:25:28.299Z,24.87
2023-03-21T13:28:03.524Z,24.63
2023-03-21T13:30:32.655Z,24.23
2023-03-21T13:33:07.427Z,21.40
2023-03-21T13:35:42.979Z,25.90
2023-03-21T13:38:27.289Z,25.27
2023-03-21T13:41:09.004Z,24.60
2023-03-21T13:43:54.057Z,26.83
2023-03-21T13:46:34.124Z,26.33
2023-03-21T13:49:08.645Z,25.20
2023-03-21T13:51:53.248Z,28.93
2023-03-21T13:54:40.474Z,27.50
2023-03-21T13:57:41.290Z,29.30
2023-03-21T14:00:39.952Z,25.53
2023-03-21T14:03:10.538Z,27.03
2023-03-21T14:05:42.563Z,27.93
2023-03-21T14:08:24.818Z,24.83
2023-03-21T14:11:04.926Z,24.87
2023-03-21T14:13:35.091Z,27.00
2023-03-21T14:16:14.242Z,23.90
2023-03-21T14:18:55.821Z,22.87
2023-03-21T14:21:28.090Z,25.30
2023-03-21T14:23:58.371Z,24.30
2023-03-21T14:26:30.641Z,22.30
2023-03-21T14:28:58.995Z,19.50
2023-03-21T14:31:27.108Z,22.20
2023-03-21T14:33:58.741Z,22.40
2023-03-21T14:36:30.637Z,23.60
2023-03-21T14:39:07.424Z,21.93
2023-03-21T14:41:49.300Z,20.50
2023-03-21T14:44:25.311Z,21.33
2023-03-21T14:47:08.442Z,20.13
2023-03-21T14:49:37.824Z,20.30
2023-03-21T14:52:12.171Z,22.80
2023-03-21T14:54:41.790Z,19.90
2023-03-21T14:57:15.017Z,19.83
2023-03-21T14:59:42.844Z,21.73
2023-03-21T15:02:35.481Z,22.77
2023-03-21T15:05:37.480Z,21.93
2023-03-21T15:08:19.185Z,24.10
2023-03-21T15:11:07.256Z,23.00
2023-03-21T15:13:52.424Z,22.53
2023-03-21T15:16:20.713Z,22.10
2023-03-21T15:18:48.835Z,23.03
2023-03-21T15:21:27.856Z,25.73
2023-03-21T15:24:14.709Z,22.17
2023-03-21T15:26:47.024Z,24.10
2023-03-21T15:29:16.312Z,26.40
2023-03-21T15:31:47.364Z,24.87
2023-03-21T15:34:28.417Z,26.80
2023-03-21T15:37:09.197Z,24.70
2023-03-21T15:39:36.757Z,26.50
2023-03-21T15:42:23.087Z,26.83
2023-03-21T15:44:55.143Z,26.07
2023-03-21T15:48:02.993Z,29.77
2023-03-21T15:50:38.433Z,25.00
2023-03-21T15:53:14.493Z,25.73
2023-03-21T15:55:53.932Z,26.83
2023-03-21T15:58:25.222Z,28.93
2023-03-21T16:00:57.475Z,27.83
2023-03-21T16:03:27.663Z,27.60
2023-03-21T16:06:14.360Z,27.77
2023-03-21T16:08:51.803Z,30.33
2023-03-21T16:11:28.428Z,30.50
2023-03-21T16:13:56.935Z,29.53
2023-03-21T16:16:29.355Z,30.80
2023-03-21T16:18:59.452Z,33.27
2023-03-21T16:21:30.747Z,31.30
2023-03-21T16:23:58.374Z,30.10
2023-03-21T16:26:32.716Z,32.83
2023-03-21T16:29:00.506Z,32.70
2023-03-21T16:31:32.270Z,37.40
2023-03-21T16:33:59.659Z,34.90
2023-03-21T16:36:30.993Z,34.23
2023-03-21T16:38:58.526Z,35.87
2023-03-21T16:41:28.092Z,36.97
2023-03-21T16:43:55.381Z,35.23
2023-03-21T16:46:27.312Z,35.67
2023-03-21T16:48:56.879Z,30.93
2023-03-21T16:51:35.731Z,33.47
2023-03-21T16:54:03.372Z,36.90
2023-03-21T16:56:39.308Z,34.43
2023-03-21T16:59:07.942Z,33.80
2023-03-21T17:01:38.419Z,37.27
2023-03-21T17:04:05.850Z,33.43
2023-03-21T17:06:33.302Z,32.90
2023-03-21T17:09:01.617Z,37.47
2023-03-21T17:11:32.822Z,33.13
2023-03-21T17:14:00.065Z,33.83
2023-03-21T17:16:27.564Z,35.50
2023-03-21T17:18:55.539Z,36.13
2023-03-21T17:21:25.946Z,39.57
2023-03-21T17:23:53.661Z,40.03
2023-03-21T17:26:25.836Z,36.43
2023-03-21T17:28:55.378Z,38.40
2023-03-21T17:31:25.375Z,39.83
2023-03-21T17:33:52.609Z,40.20
2023-03-21T17:36:24.212Z,40.97
2023-03-21T17:38:54.220Z,45.90
2023-03-21T17:41:22.670Z,41.20
2023-03-21T17:43:50.975Z,40.47
2023-03-21T17:46:23.718Z,39.07
2023-03-21T17:48:51.520Z,40.70
2023-03-21T17:51:19.210Z,38.43
2023-03-21T17:53:49.315Z,40.70
2023-03-21T17:56:26.103Z,36.73
2023-03-21T17:58:55.955Z,36.10
2023-03-21T18:01:23.325Z,37.60
2023-03-21T18:03:51.289Z,36.00
2023-03-21T18:06:21.626Z,40.30
2023-03-21T18:08:49.499Z,35.37
2023-03-21T18:11:18.202Z,34.73
2023-03-21T18:13:46.104Z,35.07
2023-03-21T18:16:17.903Z,37.40
2023-03-21T18:18:46.533Z,32.10
2023-03-21T18:21:18.972Z,34.73
2023-03-21T18:23:47.677Z,32.47
2023-03-21T18:26:19.025Z,31.90
2023-03-21T18:29:15.068Z,31.33
2023-03-21T18:31:35.000Z,34.83
2023-03-21T18:34:02.230Z,32.83
2023-03-21T18:36:29.488Z,33.07
2023-03-21T18:38:56.985Z,30.73
2023-03-21T18:41:24.099Z,31.90
2023-03-21T18:44:17.487Z,31.07
2023-03-21T18:46:46.961Z,31.53
2023-03-21T18:49:57.326Z,32.57
2023-03-21T18:52:02.944Z,32.67
2023-03-21T18:54:30.341Z,34.07
2023-03-21T18:59:45.730Z,34.77
2023-03-21T19:02:15.358Z,32.10
2023-03-21T19:04:43.299Z,34.90
2023-03-21T19:07:10.734Z,35.13
2023-03-21T19:12:26.805Z,34.80
2023-03-21T19:14:54.574Z,35.93
2023-03-21T19:20:09.902Z,33.80
2023-03-21T19:22:36.977Z,34.70
2023-03-21T19:25:05.665Z,32.57
2023-03-21T19:27:35.056Z,34.60
2023-03-21T19:30:13.801Z,31.50
2023-03-21T19:32:41.796Z,32.17
2023-03-21T19:35:09.433Z,28.10
2023-03-21T19:37:36.718Z,30.33
2023-03-21T19:40:06.929Z,28.43
2023-03-21T19:42:36.230Z,29.13
2023-03-21T19:45:05.499Z,28.83
2023-03-21T19:47:33.397Z,28.17
2023-03-21T19:50:47.399Z,26.47
2023-03-21T19:52:47.860Z,25.47
2023-03-21T19:55:15.493Z,25.13
2023-03-21T19:57:42.676Z,26.70
2023-03-21T20:00:11.470Z,25.10
2023-03-21T20:02:39.377Z,24.73
2023-03-21T20:05:08.390Z,22.33
2023-03-21T20:07:36.130Z,23.00
2023-03-21T20:10:05.194Z,20.70
2023-03-21T20:12:33.326Z,22.53
2023-03-21T20:15:16.111Z,19.97
2023-03-21T20:17:44.904Z,23.83
2023-03-21T20:20:17.773Z,22.43
2023-03-21T20:23:11.020Z,21.47
2023-03-21T20:25:44.896Z,22.33
2023-03-21T20:28:16.858Z,19.13
2023-03-21T20:30:58.208Z,22.70
2023-03-21T20:33:25.499Z,21.33
2023-03-21T20:38:54.402Z,20.87
2023-03-21T20:41:21.603Z,19.97
2023-03-21T20:46:37.682Z,16.90
2023-03-21T20:49:06.744Z,18.27
2023-03-21T20:54:21.450Z,16.93
2023-03-21T20:56:49.081Z,16.53
2023-03-21T20:59:25.679Z,17.23
2023-03-21T21:01:57.820Z,16.93
2023-03-21T21:04:44.876Z,15.60
2023-03-21T21:07:17.952Z,15.27
2023-03-21T21:09:46.196Z,14.23
2023-03-21T21:12:15.165Z,15.20
2023-03-21T21:14:43.887Z,13.70
2023-03-21T21:18:01.609Z,14.57
2023-03-21T21:20:01.856Z,16.17
2023-03-21T21:22:29.370Z,16.67
2023-03-21T21:24:57.085Z,16.30
2023-03-21T21:27:25.069Z,17.40
2023-03-21T21:29:52.310Z,16.20
2023-03-21T21:32:19.852Z,14.80
2023-03-21T21:34:48.018Z,15.83
2023-03-21T21:37:15.306Z,18.53
2023-03-21T21:39:42.696Z,16.00
2023-03-21T21:42:09.961Z,17.87
2023-03-21T21:44:37.627Z,21.03
2023-03-21T21:47:08.579Z,17.00
2023-03-21T21:49:36.617Z,21.37
2023-03-21T21:52:06.045Z,21.83
2023-03-21T21:54:36.873Z,22.50
2023-03-21T21:57:05.707Z,23.73
2023-03-21T21:59:33.936Z,22.20
2023-03-21T22:02:01.754Z,23.00
2023-03-21T22:04:29.081Z,24.20
2023-03-21T22:06:56.267Z,23.47
2023-03-21T22:09:23.641Z,23.73
2023-03-21T22:11:50.899Z,24.13
2023-03-21T22:14:18.136Z,24.00
2023-03-21T22:16:46.743Z,24.20
2023-03-21T22:19:13.988Z,25.43
2023-03-21T22:21:41.204Z,26.77
2023-03-21T22:24:08.370Z,26.97
2023-03-21T22:26:35.650Z,27.63
2023-03-21T22:29:02.943Z,32.53
2023-03-21T22:31:30.448Z,29.60
2023-03-21T22:33:57.553Z,35.27
2023-03-21T22:36:24.991Z,34.83
2023-03-21T22:38:52.102Z,33.27
2023-03-21T22:41:19.306Z,39.03
2023-03-21T22:43:46.502Z,36.80
2023-03-21T22:46:13.644Z,42.40
2023-03-21T22:48:41.580Z,40.60
2023-03-21T22:51:08.997Z,43.10
2023-03-21T22:53:36.468Z,46.97
2023-03-21T22:56:03.679Z,44.37
2023-03-21T22:58:30.919Z,42.50
2023-03-21T23:01:02.216Z,47.50
2023-03-21T23:03:29.473Z,44.73
2023-03-21T23:06:01.263Z,50.27
2023-03-21T23:08:28.893Z,47.87
2023-03-21T23:10:56.481Z,47.53
2023-03-21T23:13:23.798Z,43.97
2023-03-21T23:15:51.087Z,46.20
2023-03-21T23:18:18.280Z,49.97
2023-03-21T23:20:49.278Z,47.80
2023-03-21T23:23:16.662Z,47.57
2023-03-21T23:25:44.015Z,44.17
2023-03-21T23:28:11.121Z,45.47
2023-03-21T23:30:39.188Z,47.50
2023-03-21T23:33:06.570Z,46.37
2023-03-21T23:35:35.826Z,46.60
2023-03-21T23:38:03.147Z,45.40
2023-03-21T23:40:30.681Z,47.07
2023-03-21T23:42:59.588Z,46.20
2023-03-21T23:45:27.211Z,43.10
2023-03-21T23:47:54.455Z,49.53
2023-03-21T23:50:21.634Z,47.50
2023-03-21T23:52:48.799Z,45.67
2023-03-21T23:55:16.011Z,40.63
2023-03-21T23:57:43.881Z,44.43
